JZR6KB OKKK-UBBB
Flight info
| Callsign | JZR6KB |
|---|---|
| Flight time | 1h 39m |
| Altitude | 36000 |
| Route | ALVAX B417 MAH W31 EGVAX/N0455F370 G667 SAV/N0454F360 N72 BATEV T443 MOSUM |
| Aircraft | A320/M-SDE3FGHIRWY/LB1 |
Departure
| Time | 2026-05-05 10:05 |
|---|---|
| Airport | Kuwait International Airport (OKKK) |
Arrival
| Time | 2026-05-05 11:44 |
|---|---|
| Airport | Heydar Aliyev International Airport (UBBB) |
| Time | Latitude | Longitude | Altitude | Speed | Heading |
|---|---|---|---|---|---|
| 2026-05-05 09:17 | 29.24060 | 47.97330 | 167 ft | 0 kts | 334° |
| 2026-05-05 09:23 | 29.24033 | 47.97299 | 167 ft | 0 kts | 313° |
| 2026-05-05 09:26 | 29.24050 | 47.97335 | 167 ft | 0 kts | 334° |
| 2026-05-05 09:49 | 29.24037 | 47.97342 | 167 ft | 4 kts | 342° |
| 2026-05-05 09:49 | 29.24011 | 47.97350 | 167 ft | 4 kts | 348° |
| 2026-05-05 09:50 | 29.23984 | 47.97355 | 167 ft | 4 kts | 354° |
| 2026-05-05 09:50 | 29.23958 | 47.97358 | 167 ft | 4 kts | 357° |
| 2026-05-05 09:50 | 29.23931 | 47.97360 | 167 ft | 4 kts | 352° |
| 2026-05-05 09:50 | 29.23904 | 47.97364 | 167 ft | 4 kts | 351° |
| 2026-05-05 09:51 | 29.23888 | 47.97367 | 167 ft | 1 kts | 350° |
| 2026-05-05 09:51 | 29.23887 | 47.97368 | 167 ft | 0 kts | 350° |
| 2026-05-05 09:53 | 29.23886 | 47.97357 | 167 ft | 1 kts | 249° |
| 2026-05-05 09:53 | 29.23881 | 47.97357 | 167 ft | 0 kts | 195° |
| 2026-05-05 09:53 | 29.23876 | 47.97363 | 167 ft | 3 kts | 144° |
| 2026-05-05 09:54 | 29.23828 | 47.97400 | 167 ft | 14 kts | 147° |
| 2026-05-05 09:54 | 29.23743 | 47.97441 | 167 ft | 12 kts | 160° |
| 2026-05-05 09:54 | 29.23677 | 47.97441 | 167 ft | 10 kts | 205° |
| 2026-05-05 09:54 | 29.23631 | 47.97382 | 167 ft | 10 kts | 246° |
| 2026-05-05 09:55 | 29.23605 | 47.97318 | 167 ft | 8 kts | 246° |
| 2026-05-05 09:55 | 29.23585 | 47.97265 | 167 ft | 6 kts | 246° |
| 2026-05-05 09:55 | 29.23568 | 47.97223 | 167 ft | 5 kts | 246° |
| 2026-05-05 09:55 | 29.23546 | 47.97167 | 167 ft | 13 kts | 246° |
| 2026-05-05 09:56 | 29.23507 | 47.97069 | 167 ft | 13 kts | 245° |
| 2026-05-05 09:56 | 29.23470 | 47.96981 | 168 ft | 11 kts | 245° |
| 2026-05-05 09:56 | 29.23443 | 47.96912 | 169 ft | 8 kts | 246° |
| 2026-05-05 09:56 | 29.23426 | 47.96869 | 170 ft | 4 kts | 245° |
| 2026-05-05 09:57 | 29.23420 | 47.96853 | 171 ft | 0 kts | 244° |
| 2026-05-05 09:57 | 29.23413 | 47.96837 | 172 ft | 4 kts | 244° |
| 2026-05-05 09:57 | 29.23406 | 47.96821 | 173 ft | 0 kts | 243° |
| 2026-05-05 09:57 | 29.23399 | 47.96801 | 174 ft | 4 kts | 252° |
| 2026-05-05 09:58 | 29.23406 | 47.96755 | 177 ft | 9 kts | 304° |
| 2026-05-05 09:58 | 29.23453 | 47.96718 | 176 ft | 8 kts | 334° |
| 2026-05-05 09:58 | 29.23508 | 47.96689 | 174 ft | 9 kts | 335° |
| 2026-05-05 09:58 | 29.23570 | 47.96657 | 172 ft | 10 kts | 335° |
| 2026-05-05 09:59 | 29.23639 | 47.96622 | 169 ft | 12 kts | 335° |
| 2026-05-05 09:59 | 29.23718 | 47.96580 | 166 ft | 13 kts | 335° |
| 2026-05-05 09:59 | 29.23778 | 47.96547 | 166 ft | 9 kts | 335° |
| 2026-05-05 09:59 | 29.23829 | 47.96520 | 166 ft | 7 kts | 335° |
| 2026-05-05 10:00 | 29.23869 | 47.96498 | 166 ft | 6 kts | 334° |
| 2026-05-05 10:00 | 29.23901 | 47.96481 | 166 ft | 5 kts | 334° |
| 2026-05-05 10:00 | 29.23927 | 47.96467 | 166 ft | 4 kts | 336° |
| 2026-05-05 10:00 | 29.23946 | 47.96457 | 165 ft | 3 kts | 335° |
| 2026-05-05 10:01 | 29.23972 | 47.96444 | 165 ft | 7 kts | 334° |
| 2026-05-05 10:01 | 29.24037 | 47.96410 | 165 ft | 13 kts | 335° |
| 2026-05-05 10:01 | 29.24095 | 47.96345 | 165 ft | 11 kts | 273° |
| 2026-05-05 10:01 | 29.24075 | 47.96288 | 166 ft | 3 kts | 246° |
| 2026-05-05 10:03 | 29.24060 | 47.96248 | 169 ft | 9 kts | 246° |
| 2026-05-05 10:03 | 29.24046 | 47.96220 | 171 ft | 3 kts | 234° |
| 2026-05-05 10:03 | 29.23999 | 47.96180 | 173 ft | 9 kts | 183° |
| 2026-05-05 10:03 | 29.23978 | 47.96189 | 173 ft | 0 kts | 157° |
| 2026-05-05 10:04 | 29.23975 | 47.96190 | 173 ft | 3 kts | 157° |
| 2026-05-05 10:04 | 29.23781 | 47.96293 | 181 ft | 66 kts | 155° |
| 2026-05-05 10:04 | 29.23178 | 47.96613 | 198 ft | 123 kts | 155° |
| 2026-05-05 10:04 | 29.22242 | 47.97104 | 231 ft | 165 kts | 156° |
| 2026-05-05 10:05 | 29.21187 | 47.97647 | 855 ft | 167 kts | 155° |
| 2026-05-05 10:05 | 29.20235 | 47.98373 | 1483 ft | 168 kts | 128° |
| 2026-05-05 10:05 | 29.19593 | 47.99610 | 1662 ft | 193 kts | 118° |
| 2026-05-05 10:05 | 29.18994 | 48.01071 | 1877 ft | 212 kts | 115° |
| 2026-05-05 10:06 | 29.18335 | 48.02689 | 1989 ft | 238 kts | 117° |
| 2026-05-05 10:06 | 29.17587 | 48.04451 | 2367 ft | 255 kts | 119° |
| 2026-05-05 10:06 | 29.16789 | 48.06285 | 3109 ft | 259 kts | 120° |
| 2026-05-05 10:06 | 29.15971 | 48.08143 | 3783 ft | 263 kts | 120° |
| 2026-05-05 10:07 | 29.15227 | 48.10076 | 4514 ft | 270 kts | 108° |
| 2026-05-05 10:07 | 29.15072 | 48.12258 | 5180 ft | 280 kts | 94° |
| 2026-05-05 10:07 | 29.15126 | 48.14506 | 5885 ft | 287 kts | 85° |
| 2026-05-05 10:07 | 29.15800 | 48.16688 | 6540 ft | 299 kts | 60° |
| 2026-05-05 10:08 | 29.17125 | 48.18565 | 7209 ft | 305 kts | 51° |
| 2026-05-05 10:08 | 29.18543 | 48.20401 | 7898 ft | 309 kts | 50° |
| 2026-05-05 10:08 | 29.19989 | 48.22248 | 8600 ft | 312 kts | 50° |
| 2026-05-05 10:08 | 29.21447 | 48.24113 | 9319 ft | 316 kts | 49° |
| 2026-05-05 10:09 | 29.22900 | 48.25978 | 9975 ft | 320 kts | 49° |
| 2026-05-05 10:09 | 29.24411 | 48.27926 | 10326 ft | 337 kts | 49° |
| 2026-05-05 10:09 | 29.26016 | 48.30005 | 10469 ft | 360 kts | 49° |
| 2026-05-05 10:09 | 29.27722 | 48.32226 | 10594 ft | 381 kts | 49° |
| 2026-05-05 10:10 | 29.29504 | 48.34549 | 10991 ft | 391 kts | 49° |
| 2026-05-05 10:10 | 29.31321 | 48.36913 | 11543 ft | 397 kts | 49° |
| 2026-05-05 10:10 | 29.33025 | 48.39419 | 12105 ft | 401 kts | 58° |
| 2026-05-05 10:10 | 29.34315 | 48.42262 | 12681 ft | 404 kts | 70° |
| 2026-05-05 10:11 | 29.35125 | 48.45308 | 13246 ft | 406 kts | 79° |
| 2026-05-05 10:11 | 29.35759 | 48.48487 | 13772 ft | 411 kts | 79° |
| 2026-05-05 10:11 | 29.36406 | 48.51701 | 14294 ft | 415 kts | 79° |
| 2026-05-05 10:11 | 29.37062 | 48.54954 | 14813 ft | 419 kts | 78° |
| 2026-05-05 10:12 | 29.37723 | 48.58228 | 15346 ft | 423 kts | 78° |
| 2026-05-05 10:12 | 29.38390 | 48.61540 | 15886 ft | 427 kts | 78° |
| 2026-05-05 10:12 | 29.39061 | 48.64881 | 16411 ft | 431 kts | 78° |
| 2026-05-05 10:12 | 29.39738 | 48.68250 | 16940 ft | 435 kts | 77° |
| 2026-05-05 10:13 | 29.40419 | 48.71650 | 17477 ft | 439 kts | 77° |
| 2026-05-05 10:13 | 29.41097 | 48.75039 | 17996 ft | 443 kts | 77° |
| 2026-05-05 10:13 | 29.41787 | 48.78506 | 18467 ft | 447 kts | 77° |
| 2026-05-05 10:13 | 29.42483 | 48.82007 | 18947 ft | 450 kts | 77° |
| 2026-05-05 10:14 | 29.43182 | 48.85522 | 19433 ft | 454 kts | 77° |
| 2026-05-05 10:14 | 29.43889 | 48.89068 | 19912 ft | 457 kts | 77° |
| 2026-05-05 10:14 | 29.44853 | 48.92557 | 20367 ft | 460 kts | 64° |
| 2026-05-05 10:14 | 29.46560 | 48.95668 | 20803 ft | 460 kts | 47° |
| 2026-05-05 10:15 | 29.48916 | 48.98122 | 21227 ft | 458 kts | 30° |
| 2026-05-05 10:15 | 29.51742 | 48.99742 | 21641 ft | 453 kts | 13° |
| 2026-05-05 10:15 | 29.54765 | 49.00521 | 22043 ft | 450 kts | 5° |
| 2026-05-05 10:15 | 29.57877 | 49.01131 | 22456 ft | 453 kts | 5° |
| 2026-05-05 10:16 | 29.60997 | 49.01738 | 22857 ft | 457 kts | 5° |
| 2026-05-05 10:16 | 29.64141 | 49.02353 | 23268 ft | 460 kts | 5° |
| 2026-05-05 10:16 | 29.67305 | 49.02977 | 23612 ft | 462 kts | 5° |
| 2026-05-05 10:16 | 29.70493 | 49.03610 | 23939 ft | 464 kts | 5° |
| 2026-05-05 10:17 | 29.73650 | 49.04239 | 24254 ft | 467 kts | 5° |
| 2026-05-05 10:17 | 29.76862 | 49.04879 | 24577 ft | 469 kts | 5° |
| 2026-05-05 10:17 | 29.80090 | 49.05524 | 24895 ft | 471 kts | 5° |
| 2026-05-05 10:17 | 29.83328 | 49.06171 | 25205 ft | 473 kts | 5° |
| 2026-05-05 10:18 | 29.86587 | 49.06823 | 25516 ft | 475 kts | 5° |
| 2026-05-05 10:18 | 29.89821 | 49.07468 | 25818 ft | 477 kts | 5° |
| 2026-05-05 10:18 | 29.93094 | 49.08112 | 26115 ft | 478 kts | 4° |
| 2026-05-05 10:18 | 29.96399 | 49.08637 | 26398 ft | 478 kts | 1° |
| 2026-05-05 10:19 | 29.99709 | 49.09029 | 26676 ft | 479 kts | 359° |
| 2026-05-05 10:19 | 30.03037 | 49.09341 | 26944 ft | 480 kts | 359° |
| 2026-05-05 10:19 | 30.06380 | 49.09626 | 27209 ft | 482 kts | 358° |
| 2026-05-05 10:19 | 30.09728 | 49.09922 | 27474 ft | 484 kts | 359° |
| 2026-05-05 10:20 | 30.13099 | 49.10248 | 27726 ft | 486 kts | 359° |
| 2026-05-05 10:20 | 30.16477 | 49.10601 | 27964 ft | 488 kts | 360° |
| 2026-05-05 10:20 | 30.19870 | 49.10975 | 28200 ft | 490 kts | 360° |
| 2026-05-05 10:20 | 30.23270 | 49.11362 | 28419 ft | 492 kts | 360° |
| 2026-05-05 10:21 | 30.26681 | 49.11754 | 28686 ft | 492 kts | 360° |
| 2026-05-05 10:21 | 30.30086 | 49.12143 | 29025 ft | 491 kts | 360° |
| 2026-05-05 10:21 | 30.33489 | 49.12526 | 29374 ft | 491 kts | 360° |
| 2026-05-05 10:21 | 30.36886 | 49.12900 | 29688 ft | 490 kts | 359° |
| 2026-05-05 10:22 | 30.40239 | 49.13262 | 29971 ft | 490 kts | 359° |
| 2026-05-05 10:22 | 30.43636 | 49.13625 | 30228 ft | 490 kts | 359° |
| 2026-05-05 10:22 | 30.47028 | 49.13990 | 30476 ft | 490 kts | 359° |
| 2026-05-05 10:22 | 30.50431 | 49.14360 | 30723 ft | 491 kts | 359° |
| 2026-05-05 10:23 | 30.53828 | 49.14734 | 30971 ft | 491 kts | 359° |
| 2026-05-05 10:23 | 30.57221 | 49.14924 | 31231 ft | 485 kts | 352° |
| 2026-05-05 10:23 | 30.60595 | 49.14886 | 31475 ft | 485 kts | 352° |
| 2026-05-05 10:23 | 30.63966 | 49.14845 | 31726 ft | 485 kts | 352° |
| 2026-05-05 10:24 | 30.67339 | 49.14802 | 31974 ft | 485 kts | 351° |
| 2026-05-05 10:24 | 30.70715 | 49.14758 | 32233 ft | 484 kts | 351° |
| 2026-05-05 10:24 | 30.74085 | 49.14712 | 32488 ft | 484 kts | 351° |
| 2026-05-05 10:24 | 30.77450 | 49.14664 | 32755 ft | 484 kts | 351° |
| 2026-05-05 10:25 | 30.80821 | 49.14613 | 33009 ft | 484 kts | 351° |
| 2026-05-05 10:25 | 30.84193 | 49.14563 | 33257 ft | 484 kts | 351° |
| 2026-05-05 10:25 | 30.87563 | 49.14517 | 33509 ft | 484 kts | 350° |
| 2026-05-05 10:25 | 30.90934 | 49.14473 | 33753 ft | 484 kts | 350° |
| 2026-05-05 10:26 | 30.94300 | 49.14433 | 33976 ft | 484 kts | 350° |
| 2026-05-05 10:26 | 30.97672 | 49.14395 | 34207 ft | 484 kts | 350° |
| 2026-05-05 10:26 | 31.01044 | 49.14356 | 34416 ft | 484 kts | 350° |
| 2026-05-05 10:26 | 31.04409 | 49.14314 | 34623 ft | 484 kts | 350° |
| 2026-05-05 10:27 | 31.11173 | 49.14210 | 34746 ft | 488 kts | 350° |
| 2026-05-05 10:27 | 31.17966 | 49.14111 | 34754 ft | 489 kts | 350° |
| 2026-05-05 10:28 | 31.24765 | 49.14031 | 34746 ft | 488 kts | 350° |
| 2026-05-05 10:28 | 31.31552 | 49.13946 | 34748 ft | 488 kts | 350° |
| 2026-05-05 10:29 | 31.38342 | 49.13851 | 34747 ft | 488 kts | 350° |
| 2026-05-05 10:29 | 31.45096 | 49.13761 | 34756 ft | 488 kts | 350° |
| 2026-05-05 10:30 | 31.51880 | 49.13668 | 34764 ft | 488 kts | 350° |
| 2026-05-05 10:30 | 31.58671 | 49.13576 | 34759 ft | 488 kts | 350° |
| 2026-05-05 10:31 | 31.65453 | 49.13486 | 34780 ft | 488 kts | 350° |
| 2026-05-05 10:31 | 31.72259 | 49.13556 | 34778 ft | 496 kts | 358° |
| 2026-05-05 10:32 | 31.79106 | 49.15250 | 35039 ft | 507 kts | 6° |
| 2026-05-05 10:32 | 31.82525 | 49.16254 | 35273 ft | 506 kts | 6° |
| 2026-05-05 10:32 | 31.85952 | 49.17255 | 35461 ft | 506 kts | 6° |
| 2026-05-05 10:33 | 31.89372 | 49.18247 | 35628 ft | 507 kts | 6° |
| 2026-05-05 10:33 | 31.92804 | 49.19243 | 35773 ft | 508 kts | 6° |
| 2026-05-05 10:33 | 31.96241 | 49.20244 | 35943 ft | 508 kts | 6° |
| 2026-05-05 10:33 | 31.99674 | 49.21251 | 36112 ft | 508 kts | 6° |
| 2026-05-05 10:34 | 32.03105 | 49.22256 | 36234 ft | 509 kts | 6° |
| 2026-05-05 10:34 | 32.06550 | 49.23262 | 36399 ft | 509 kts | 6° |
| 2026-05-05 10:34 | 32.09951 | 49.24255 | 36529 ft | 510 kts | 6° |
| 2026-05-05 10:34 | 32.13403 | 49.25269 | 36663 ft | 510 kts | 6° |
| 2026-05-05 10:35 | 32.16838 | 49.26282 | 36847 ft | 509 kts | 5° |
| 2026-05-05 10:35 | 32.20283 | 49.27298 | 36861 ft | 511 kts | 5° |
| 2026-05-05 10:35 | 32.27193 | 49.29325 | 36888 ft | 511 kts | 5° |
| 2026-05-05 10:36 | 32.34107 | 49.31355 | 36921 ft | 511 kts | 5° |
| 2026-05-05 10:36 | 32.41011 | 49.33398 | 36917 ft | 511 kts | 6° |
| 2026-05-05 10:37 | 32.47867 | 49.35428 | 36977 ft | 512 kts | 5° |
| 2026-05-05 10:37 | 32.54792 | 49.37476 | 37030 ft | 513 kts | 5° |
| 2026-05-05 10:38 | 32.61718 | 49.39523 | 37032 ft | 512 kts | 6° |
| 2026-05-05 10:38 | 32.68616 | 49.41566 | 37021 ft | 507 kts | 6° |
| 2026-05-05 10:39 | 32.75454 | 49.43603 | 37070 ft | 509 kts | 5° |
| 2026-05-05 10:39 | 32.82348 | 49.45644 | 37107 ft | 510 kts | 5° |
| 2026-05-05 10:40 | 32.89253 | 49.47695 | 37106 ft | 510 kts | 6° |
| 2026-05-05 10:40 | 32.96111 | 49.49736 | 37096 ft | 510 kts | 5° |
| 2026-05-05 10:41 | 33.03002 | 49.51793 | 37124 ft | 509 kts | 6° |
| 2026-05-05 10:41 | 33.09865 | 49.53857 | 37129 ft | 506 kts | 6° |
| 2026-05-05 10:42 | 33.20111 | 49.56937 | 37139 ft | 504 kts | 6° |
| 2026-05-05 10:43 | 33.26872 | 49.58965 | 37111 ft | 502 kts | 6° |
| 2026-05-05 10:43 | 33.33647 | 49.61014 | 37105 ft | 502 kts | 6° |
| 2026-05-05 10:44 | 33.40426 | 49.63063 | 37096 ft | 502 kts | 6° |
| 2026-05-05 10:44 | 33.47210 | 49.65106 | 37111 ft | 502 kts | 7° |
| 2026-05-05 10:45 | 33.53976 | 49.67148 | 37120 ft | 501 kts | 7° |
| 2026-05-05 10:45 | 33.60709 | 49.69189 | 37121 ft | 500 kts | 7° |
| 2026-05-05 10:46 | 33.67468 | 49.71243 | 37117 ft | 499 kts | 7° |
| 2026-05-05 10:46 | 33.73077 | 49.72956 | 37105 ft | 499 kts | 7° |
| 2026-05-05 10:47 | 33.79809 | 49.75016 | 37099 ft | 499 kts | 7° |
| 2026-05-05 10:47 | 33.86547 | 49.77066 | 37108 ft | 498 kts | 7° |
| 2026-05-05 10:48 | 33.93283 | 49.79106 | 37095 ft | 497 kts | 7° |
| 2026-05-05 10:48 | 33.99947 | 49.81142 | 37082 ft | 497 kts | 7° |
| 2026-05-05 10:49 | 34.06665 | 49.83214 | 37078 ft | 497 kts | 7° |
| 2026-05-05 10:49 | 34.13355 | 49.85383 | 37113 ft | 502 kts | 13° |
| 2026-05-05 10:50 | 34.19794 | 49.88900 | 37079 ft | 510 kts | 20° |
| 2026-05-05 10:50 | 34.26193 | 49.92637 | 37068 ft | 510 kts | 20° |
| 2026-05-05 10:51 | 34.32589 | 49.96354 | 37060 ft | 510 kts | 20° |
| 2026-05-05 10:51 | 34.39001 | 50.00087 | 37056 ft | 511 kts | 20° |
| 2026-05-05 10:52 | 34.45377 | 50.03815 | 37075 ft | 510 kts | 20° |
| 2026-05-05 10:52 | 34.51767 | 50.07563 | 37064 ft | 509 kts | 20° |
| 2026-05-05 10:53 | 34.58146 | 50.11311 | 37061 ft | 509 kts | 20° |
| 2026-05-05 10:53 | 34.64515 | 50.15050 | 37055 ft | 509 kts | 20° |
| 2026-05-05 10:54 | 34.70877 | 50.18798 | 37036 ft | 507 kts | 20° |
| 2026-05-05 10:54 | 34.77214 | 50.22525 | 37042 ft | 508 kts | 20° |
| 2026-05-05 10:55 | 34.83585 | 50.26287 | 36993 ft | 509 kts | 20° |
| 2026-05-05 10:55 | 34.89924 | 50.30054 | 36981 ft | 509 kts | 20° |
| 2026-05-05 10:56 | 34.96324 | 50.33850 | 36969 ft | 510 kts | 19° |
| 2026-05-05 10:56 | 35.02954 | 50.36488 | 36961 ft | 493 kts | 2° |
| 2026-05-05 10:57 | 35.09676 | 50.36946 | 36957 ft | 479 kts | 350° |
| 2026-05-05 10:57 | 35.16310 | 50.36775 | 36974 ft | 479 kts | 350° |
| 2026-05-05 10:58 | 35.22978 | 50.36616 | 36980 ft | 479 kts | 350° |
| 2026-05-05 10:58 | 35.29649 | 50.36448 | 36985 ft | 478 kts | 350° |
| 2026-05-05 10:59 | 35.36305 | 50.36269 | 37001 ft | 478 kts | 350° |
| 2026-05-05 10:59 | 35.42976 | 50.36091 | 36986 ft | 479 kts | 350° |
| 2026-05-05 11:00 | 35.49613 | 50.35920 | 36975 ft | 479 kts | 350° |
| 2026-05-05 11:00 | 35.56302 | 50.35758 | 36967 ft | 480 kts | 351° |
| 2026-05-05 11:01 | 35.62994 | 50.35595 | 36963 ft | 481 kts | 351° |
| 2026-05-05 11:01 | 35.69691 | 50.35425 | 36962 ft | 481 kts | 351° |
| 2026-05-05 11:02 | 35.76360 | 50.35258 | 36976 ft | 481 kts | 351° |
| 2026-05-05 11:02 | 35.83072 | 50.35090 | 36974 ft | 481 kts | 351° |
| 2026-05-05 11:03 | 35.89787 | 50.34922 | 36971 ft | 482 kts | 351° |
| 2026-05-05 11:03 | 35.96457 | 50.34751 | 36983 ft | 482 kts | 350° |
| 2026-05-05 11:04 | 36.03157 | 50.34570 | 36988 ft | 482 kts | 350° |
| 2026-05-05 11:04 | 36.09874 | 50.34396 | 37003 ft | 482 kts | 350° |
| 2026-05-05 11:05 | 36.16568 | 50.34220 | 37005 ft | 481 kts | 350° |
| 2026-05-05 11:05 | 36.23272 | 50.34043 | 37005 ft | 482 kts | 351° |
| 2026-05-05 11:06 | 36.29977 | 50.33864 | 37030 ft | 481 kts | 350° |
| 2026-05-05 11:06 | 36.36623 | 50.33619 | 37007 ft | 481 kts | 349° |
| 2026-05-05 11:07 | 36.43330 | 50.33321 | 37011 ft | 481 kts | 349° |
| 2026-05-05 11:07 | 36.50037 | 50.33028 | 37009 ft | 482 kts | 349° |
| 2026-05-05 11:08 | 36.56768 | 50.32746 | 36993 ft | 484 kts | 349° |
| 2026-05-05 11:08 | 36.63514 | 50.32477 | 36968 ft | 484 kts | 349° |
| 2026-05-05 11:09 | 36.70213 | 50.32201 | 36978 ft | 484 kts | 349° |
| 2026-05-05 11:09 | 36.76960 | 50.31920 | 36965 ft | 485 kts | 349° |
| 2026-05-05 11:10 | 36.83721 | 50.31646 | 36995 ft | 486 kts | 349° |
| 2026-05-05 11:10 | 36.90443 | 50.31367 | 36976 ft | 485 kts | 349° |
| 2026-05-05 11:11 | 36.97204 | 50.31082 | 36956 ft | 485 kts | 349° |
| 2026-05-05 11:11 | 37.03971 | 50.30801 | 36969 ft | 486 kts | 350° |
| 2026-05-05 11:12 | 37.10745 | 50.30478 | 36942 ft | 486 kts | 349° |
| 2026-05-05 11:12 | 37.17456 | 50.30046 | 36939 ft | 486 kts | 348° |
| 2026-05-05 11:13 | 37.24221 | 50.29594 | 36952 ft | 488 kts | 348° |
| 2026-05-05 11:13 | 37.31006 | 50.29166 | 36934 ft | 489 kts | 349° |
| 2026-05-05 11:14 | 37.37816 | 50.28754 | 36929 ft | 490 kts | 349° |
| 2026-05-05 11:14 | 37.44640 | 50.28337 | 36939 ft | 491 kts | 349° |
| 2026-05-05 11:15 | 37.51474 | 50.27923 | 36931 ft | 491 kts | 349° |
| 2026-05-05 11:15 | 37.58270 | 50.27498 | 36962 ft | 492 kts | 349° |
| 2026-05-05 11:16 | 37.65139 | 50.27068 | 36942 ft | 492 kts | 349° |
| 2026-05-05 11:16 | 37.71992 | 50.26649 | 36931 ft | 493 kts | 349° |
| 2026-05-05 11:17 | 37.78808 | 50.26235 | 36930 ft | 493 kts | 349° |
| 2026-05-05 11:17 | 37.85669 | 50.25808 | 36937 ft | 492 kts | 349° |
| 2026-05-05 11:18 | 37.92481 | 50.25379 | 36945 ft | 492 kts | 349° |
| 2026-05-05 11:18 | 37.99335 | 50.24952 | 36949 ft | 492 kts | 349° |
| 2026-05-05 11:19 | 38.06192 | 50.24528 | 36948 ft | 492 kts | 349° |
| 2026-05-05 11:19 | 38.13034 | 50.24097 | 36983 ft | 492 kts | 349° |
| 2026-05-05 11:20 | 38.19878 | 50.23789 | 36957 ft | 496 kts | 352° |
| 2026-05-05 11:20 | 38.26775 | 50.24035 | 36944 ft | 499 kts | 355° |
| 2026-05-05 11:21 | 38.33721 | 50.24503 | 36957 ft | 500 kts | 355° |
| 2026-05-05 11:21 | 38.40684 | 50.24878 | 36939 ft | 499 kts | 354° |
| 2026-05-05 11:22 | 38.47634 | 50.25141 | 36897 ft | 500 kts | 354° |
| 2026-05-05 11:22 | 38.51116 | 50.25253 | 36671 ft | 500 kts | 354° |
| 2026-05-05 11:22 | 38.54606 | 50.25370 | 36413 ft | 502 kts | 354° |
| 2026-05-05 11:22 | 38.58070 | 50.25496 | 35640 ft | 506 kts | 355° |
| 2026-05-05 11:23 | 38.61621 | 50.25632 | 34704 ft | 511 kts | 355° |
| 2026-05-05 11:23 | 38.65190 | 50.25781 | 33719 ft | 515 kts | 356° |
| 2026-05-05 11:23 | 38.68790 | 50.25936 | 32571 ft | 519 kts | 356° |
| 2026-05-05 11:23 | 38.72419 | 50.26088 | 31464 ft | 523 kts | 356° |
| 2026-05-05 11:24 | 38.76071 | 50.26237 | 30289 ft | 527 kts | 357° |
| 2026-05-05 11:24 | 38.79761 | 50.26388 | 28907 ft | 531 kts | 357° |
| 2026-05-05 11:24 | 38.83450 | 50.26542 | 27625 ft | 531 kts | 357° |
| 2026-05-05 11:24 | 38.87106 | 50.26696 | 26363 ft | 532 kts | 357° |
| 2026-05-05 11:25 | 38.90780 | 50.26853 | 25702 ft | 522 kts | 357° |
| 2026-05-05 11:25 | 38.94399 | 50.27004 | 24782 ft | 518 kts | 357° |
| 2026-05-05 11:25 | 38.97989 | 50.27149 | 23931 ft | 514 kts | 357° |
| 2026-05-05 11:25 | 39.01557 | 50.27290 | 23021 ft | 510 kts | 357° |
| 2026-05-05 11:26 | 39.05089 | 50.27431 | 22218 ft | 504 kts | 357° |
| 2026-05-05 11:26 | 39.08578 | 50.27576 | 21454 ft | 498 kts | 357° |
| 2026-05-05 11:26 | 39.12027 | 50.27722 | 20710 ft | 493 kts | 357° |
| 2026-05-05 11:26 | 39.15438 | 50.27861 | 19992 ft | 488 kts | 357° |
| 2026-05-05 11:27 | 39.18770 | 50.27994 | 19321 ft | 483 kts | 357° |
| 2026-05-05 11:27 | 39.22115 | 50.28128 | 18657 ft | 478 kts | 357° |
| 2026-05-05 11:27 | 39.25425 | 50.28262 | 17999 ft | 473 kts | 357° |
| 2026-05-05 11:27 | 39.28701 | 50.28396 | 17364 ft | 466 kts | 357° |
| 2026-05-05 11:28 | 39.31924 | 50.28528 | 16762 ft | 460 kts | 357° |
| 2026-05-05 11:28 | 39.35104 | 50.28658 | 16182 ft | 454 kts | 357° |
| 2026-05-05 11:28 | 39.38246 | 50.28788 | 15578 ft | 449 kts | 357° |
| 2026-05-05 11:28 | 39.40308 | 50.28873 | 15180 ft | 446 kts | 357° |
| 2026-05-05 11:29 | 39.43401 | 50.29001 | 14560 ft | 442 kts | 357° |
| 2026-05-05 11:29 | 39.47464 | 50.29170 | 13832 ft | 435 kts | 357° |
| 2026-05-05 11:29 | 39.49454 | 50.29254 | 13245 ft | 428 kts | 357° |
| 2026-05-05 11:29 | 39.52429 | 50.29376 | 12589 ft | 425 kts | 358° |
| 2026-05-05 11:30 | 39.55376 | 50.29495 | 11907 ft | 422 kts | 358° |
| 2026-05-05 11:30 | 39.58309 | 50.29615 | 11208 ft | 419 kts | 359° |
| 2026-05-05 11:30 | 39.61191 | 50.29733 | 10770 ft | 406 kts | 359° |
| 2026-05-05 11:30 | 39.63927 | 50.29849 | 10641 ft | 389 kts | 359° |
| 2026-05-05 11:31 | 39.66579 | 50.29965 | 10520 ft | 372 kts | 360° |
| 2026-05-05 11:31 | 39.69118 | 50.30077 | 10397 ft | 357 kts | 360° |
| 2026-05-05 11:31 | 39.71560 | 50.30182 | 10280 ft | 344 kts | 359° |
| 2026-05-05 11:31 | 39.73887 | 50.30280 | 10067 ft | 325 kts | 359° |
| 2026-05-05 11:32 | 39.76129 | 50.30371 | 9642 ft | 319 kts | 360° |
| 2026-05-05 11:32 | 39.78303 | 50.30458 | 9465 ft | 315 kts | 360° |
| 2026-05-05 11:32 | 39.80500 | 50.30545 | 8963 ft | 314 kts | 360° |
| 2026-05-05 11:32 | 39.82673 | 50.30609 | 8533 ft | 310 kts | 355° |
| 2026-05-05 11:33 | 39.84778 | 50.30161 | 8011 ft | 303 kts | 339° |
| 2026-05-05 11:33 | 39.86768 | 50.29326 | 7546 ft | 297 kts | 337° |
| 2026-05-05 11:33 | 39.88678 | 50.28415 | 7427 ft | 296 kts | 335° |
| 2026-05-05 11:33 | 39.90595 | 50.27427 | 7309 ft | 295 kts | 333° |
| 2026-05-05 11:34 | 39.92498 | 50.26417 | 7192 ft | 295 kts | 333° |
| 2026-05-05 11:34 | 39.94395 | 50.25405 | 7070 ft | 294 kts | 333° |
| 2026-05-05 11:34 | 39.96292 | 50.24402 | 6949 ft | 293 kts | 333° |
| 2026-05-05 11:34 | 39.98164 | 50.23418 | 6833 ft | 293 kts | 333° |
| 2026-05-05 11:35 | 40.00052 | 50.22429 | 6710 ft | 292 kts | 333° |
| 2026-05-05 11:35 | 40.01945 | 50.21441 | 6592 ft | 291 kts | 333° |
| 2026-05-05 11:35 | 40.03826 | 50.20464 | 6471 ft | 291 kts | 333° |
| 2026-05-05 11:35 | 40.05713 | 50.19487 | 6350 ft | 290 kts | 333° |
| 2026-05-05 11:36 | 40.07589 | 50.18512 | 6245 ft | 291 kts | 333° |
| 2026-05-05 11:36 | 40.09453 | 50.17542 | 6108 ft | 292 kts | 333° |
| 2026-05-05 11:36 | 40.11344 | 50.16558 | 5772 ft | 293 kts | 333° |
| 2026-05-05 11:36 | 40.13243 | 50.15570 | 5341 ft | 291 kts | 333° |
| 2026-05-05 11:37 | 40.15106 | 50.14602 | 5007 ft | 285 kts | 333° |
| 2026-05-05 11:37 | 40.16933 | 50.13657 | 4362 ft | 280 kts | 333° |
| 2026-05-05 11:37 | 40.18721 | 50.12730 | 3785 ft | 272 kts | 334° |
| 2026-05-05 11:37 | 40.20424 | 50.11847 | 3422 ft | 256 kts | 335° |
| 2026-05-05 11:38 | 40.22027 | 50.11015 | 3366 ft | 239 kts | 335° |
| 2026-05-05 11:38 | 40.23528 | 50.10231 | 3309 ft | 224 kts | 335° |
| 2026-05-05 11:38 | 40.24949 | 50.09485 | 3257 ft | 214 kts | 335° |
| 2026-05-05 11:38 | 40.26293 | 50.08779 | 3194 ft | 202 kts | 335° |
| 2026-05-05 11:39 | 40.27558 | 50.08113 | 3114 ft | 196 kts | 335° |
| 2026-05-05 11:39 | 40.28815 | 50.07450 | 3031 ft | 193 kts | 336° |
| 2026-05-05 11:39 | 40.30065 | 50.06805 | 2950 ft | 190 kts | 341° |
| 2026-05-05 11:39 | 40.31342 | 50.06573 | 2775 ft | 182 kts | 355° |
| 2026-05-05 11:40 | 40.32591 | 50.06529 | 2539 ft | 177 kts | 358° |
| 2026-05-05 11:40 | 40.33793 | 50.06506 | 2310 ft | 169 kts | 358° |
| 2026-05-05 11:40 | 40.34938 | 50.06487 | 2091 ft | 161 kts | 359° |
| 2026-05-05 11:40 | 40.36039 | 50.06470 | 1874 ft | 156 kts | 359° |
| 2026-05-05 11:41 | 40.37131 | 50.06453 | 1669 ft | 158 kts | 359° |
| 2026-05-05 11:41 | 40.38230 | 50.06436 | 1451 ft | 158 kts | 360° |
| 2026-05-05 11:41 | 40.39291 | 50.06420 | 1243 ft | 146 kts | 360° |
| 2026-05-05 11:41 | 40.40280 | 50.06405 | 1045 ft | 139 kts | 360° |
| 2026-05-05 11:42 | 40.41228 | 50.06391 | 867 ft | 138 kts | 360° |
| 2026-05-05 11:42 | 40.42182 | 50.06377 | 689 ft | 137 kts | 359° |
| 2026-05-05 11:42 | 40.43123 | 50.06363 | 555 ft | 134 kts | 358° |
| 2026-05-05 11:42 | 40.44037 | 50.06352 | 363 ft | 131 kts | 358° |
| 2026-05-05 11:43 | 40.44948 | 50.06343 | 220 ft | 131 kts | 358° |
| 2026-05-05 11:43 | 40.45855 | 50.06332 | 33 ft | 130 kts | 357° |
| 2026-05-05 11:43 | 40.46670 | 50.06311 | 14 ft | 96 kts | 359° |
| 2026-05-05 11:43 | 40.47168 | 50.06302 | 10 ft | 50 kts | 358° |
| 2026-05-05 11:44 | 40.47439 | 50.06254 | 11 ft | 26 kts | 335° |
| 2026-05-05 11:44 | 40.47560 | 50.06163 | 13 ft | 14 kts | 319° |
| 2026-05-05 11:44 | 40.47594 | 50.06123 | 14 ft | 3 kts | 310° |
| 2026-05-05 11:44 | 40.47601 | 50.06112 | 14 ft | 0 kts | 310° |
| 2026-05-05 11:45 | 40.47601 | 50.06108 | 14 ft | 1 kts | 288° |
| 2026-05-05 11:45 | 40.47578 | 50.06085 | 16 ft | 5 kts | 200° |
| 2026-05-05 11:45 | 40.47546 | 50.06081 | 14 ft | 4 kts | 180° |
| 2026-05-05 11:45 | 40.47519 | 50.06081 | 14 ft | 4 kts | 180° |
| 2026-05-05 11:46 | 40.47490 | 50.06081 | 14 ft | 5 kts | 180° |
| 2026-05-05 11:46 | 40.47445 | 50.06081 | 14 ft | 11 kts | 181° |
| 2026-05-05 11:46 | 40.47343 | 50.06082 | 14 ft | 17 kts | 180° |
| 2026-05-05 11:46 | 40.47211 | 50.06085 | 14 ft | 19 kts | 179° |
| 2026-05-05 11:47 | 40.47090 | 50.06087 | 14 ft | 16 kts | 179° |
| 2026-05-05 11:47 | 40.46987 | 50.06089 | 14 ft | 14 kts | 179° |
| 2026-05-05 11:47 | 40.46893 | 50.06091 | 14 ft | 13 kts | 179° |
| 2026-05-05 11:47 | 40.46806 | 50.06093 | 14 ft | 12 kts | 179° |
| 2026-05-05 11:48 | 40.46653 | 50.06094 | 15 ft | 12 kts | 180° |
| 2026-05-05 11:48 | 40.46585 | 50.06057 | 16 ft | 11 kts | 245° |
| 2026-05-05 11:48 | 40.46549 | 50.05961 | 15 ft | 13 kts | 218° |
| 2026-05-05 11:49 | 40.46517 | 50.05856 | 15 ft | 14 kts | 271° |
| 2026-05-05 11:49 | 40.46514 | 50.05724 | 15 ft | 16 kts | 268° |
| 2026-05-05 11:49 | 40.46530 | 50.05601 | 15 ft | 14 kts | 308° |
| 2026-05-05 11:49 | 40.46594 | 50.05538 | 15 ft | 2 kts | 326° |
| 2026-05-05 11:50 | 40.46602 | 50.05516 | 15 ft | 4 kts | 286° |
| 2026-05-05 11:50 | 40.46609 | 50.05467 | 15 ft | 7 kts | 280° |
| 2026-05-05 11:50 | 40.46613 | 50.05434 | 15 ft | 1 kts | 278° |
| 2026-05-05 11:50 | 40.46615 | 50.05413 | 15 ft | 2 kts | 279° |
| 2026-05-05 11:51 | 40.46616 | 50.05404 | 15 ft | 1 kts | 279° |
| 2026-05-05 11:51 | 40.46617 | 50.05400 | 15 ft | 0 kts | 279° |